sensor_id;sensor_type;location;lat;lon;timestamp;P1;durP1;ratioP1;P2;durP2;ratioP2
52274;SDS011;38228;50.940;4.024;2022-12-01T00:00:07;140.90;;;35.42;;
52274;SDS011;38228;50.940;4.024;2022-12-01T00:02:44;212.38;;;38.53;;
52274;SDS011;38228;50.940;4.024;2022-12-01T00:05:18;157.93;;;34.25;;
52274;SDS011;38228;50.940;4.024;2022-12-01T00:07:52;113.05;;;30.65;;
52274;SDS011;38228;50.940;4.024;2022-12-01T00:10:35;134.98;;;32.95;;
52274;SDS011;38228;50.940;4.024;2022-12-01T00:13:07;122.95;;;33.47;;
52274;SDS011;38228;50.940;4.024;2022-12-01T00:15:47;154.35;;;34.45;;
52274;SDS011;38228;50.940;4.024;2022-12-01T00:18:26;210.18;;;41.30;;
52274;SDS011;38228;50.940;4.024;2022-12-01T00:21:12;207.38;;;40.13;;
52274;SDS011;38228;50.940;4.024;2022-12-01T00:23:46;421.10;;;51.05;;
52274;SDS011;38228;50.940;4.024;2022-12-01T00:26:24;274.42;;;42.13;;
52274;SDS011;38228;50.940;4.024;2022-12-01T00:29:04;139.65;;;36.22;;
52274;SDS011;38228;50.940;4.024;2022-12-01T00:31:34;115.72;;;32.80;;
52274;SDS011;38228;50.940;4.024;2022-12-01T00:34:10;106.78;;;32.78;;
52274;SDS011;38228;50.940;4.024;2022-12-01T00:36:57;141.95;;;32.72;;
52274;SDS011;38228;50.940;4.024;2022-12-01T00:39:34;171.30;;;34.30;;
52274;SDS011;38228;50.940;4.024;2022-12-01T00:42:13;157.55;;;31.00;;
52274;SDS011;38228;50.940;4.024;2022-12-01T00:44:45;372.80;;;45.10;;
52274;SDS011;38228;50.940;4.024;2022-12-01T00:47:21;294.77;;;38.92;;
52274;SDS011;38228;50.940;4.024;2022-12-01T00:49:54;149.02;;;32.70;;
52274;SDS011;38228;50.940;4.024;2022-12-01T00:52:29;148.60;;;33.03;;
52274;SDS011;38228;50.940;4.024;2022-12-01T00:55:03;258.83;;;40.03;;
52274;SDS011;38228;50.940;4.024;2022-12-01T00:57:39;174.85;;;35.13;;
52274;SDS011;38228;50.940;4.024;2022-12-01T01:00:10;76.50;;;29.80;;
52274;SDS011;38228;50.940;4.024;2022-12-01T01:02:49;73.85;;;29.90;;
52274;SDS011;38228;50.940;4.024;2022-12-01T01:05:25;109.82;;;30.55;;
52274;SDS011;38228;50.940;4.024;2022-12-01T01:08:13;134.02;;;34.85;;
52274;SDS011;38228;50.940;4.024;2022-12-01T01:10:54;65.90;;;28.88;;
52274;SDS011;38228;50.940;4.024;2022-12-01T01:13:25;88.53;;;33.10;;
52274;SDS011;38228;50.940;4.024;2022-12-01T01:16:01;59.53;;;27.67;;
52274;SDS011;38228;50.940;4.024;2022-12-01T01:18:42;57.28;;;28.00;;
52274;SDS011;38228;50.940;4.024;2022-12-01T01:21:21;54.47;;;27.42;;
52274;SDS011;38228;50.940;4.024;2022-12-01T01:23:57;54.80;;;26.90;;
52274;SDS011;38228;50.940;4.024;2022-12-01T01:26:34;48.42;;;26.52;;
52274;SDS011;38228;50.940;4.024;2022-12-01T01:29:19;48.50;;;25.27;;
52274;SDS011;38228;50.940;4.024;2022-12-01T01:32:01;53.38;;;26.33;;
52274;SDS011;38228;50.940;4.024;2022-12-01T01:34:33;51.33;;;26.15;;
52274;SDS011;38228;50.940;4.024;2022-12-01T01:37:08;53.25;;;27.70;;
52274;SDS011;38228;50.940;4.024;2022-12-01T01:39:41;53.72;;;27.67;;
52274;SDS011;38228;50.940;4.024;2022-12-01T01:42:21;52.30;;;26.40;;
52274;SDS011;38228;50.940;4.024;2022-12-01T01:45:01;48.08;;;26.77;;
52274;SDS011;38228;50.940;4.024;2022-12-01T01:47:33;56.63;;;28.90;;
52274;SDS011;38228;50.940;4.024;2022-12-01T01:50:06;58.22;;;28.88;;
52274;SDS011;38228;50.940;4.024;2022-12-01T01:53:03;54.78;;;28.20;;
52274;SDS011;38228;50.940;4.024;2022-12-01T01:55:40;57.83;;;29.85;;
52274;SDS011;38228;50.940;4.024;2022-12-01T01:58:17;55.67;;;28.63;;
52274;SDS011;38228;50.940;4.024;2022-12-01T02:00:50;61.60;;;30.75;;
52274;SDS011;38228;50.940;4.024;2022-12-01T02:03:26;55.00;;;28.20;;
52274;SDS011;38228;50.940;4.024;2022-12-01T02:06:06;60.95;;;30.52;;
52274;SDS011;38228;50.940;4.024;2022-12-01T02:08:40;66.18;;;32.65;;
52274;SDS011;38228;50.940;4.024;2022-12-01T02:20:35;71.25;;;33.45;;
52274;SDS011;38228;50.940;4.024;2022-12-01T02:32:52;88.22;;;36.88;;
52274;SDS011;38228;50.940;4.024;2022-12-01T02:38:50;96.97;;;39.67;;
52274;SDS011;38228;50.940;4.024;2022-12-01T02:41:50;95.03;;;41.55;;
52274;SDS011;38228;50.940;4.024;2022-12-01T02:44:35;102.95;;;44.35;;
52274;SDS011;38228;50.940;4.024;2022-12-01T02:47:15;107.55;;;45.17;;
52274;SDS011;38228;50.940;4.024;2022-12-01T02:52:29;103.43;;;41.42;;
52274;SDS011;38228;50.940;4.024;2022-12-01T02:55:02;102.13;;;40.53;;
52274;SDS011;38228;50.940;4.024;2022-12-01T02:57:34;104.25;;;44.42;;
52274;SDS011;38228;50.940;4.024;2022-12-01T03:00:06;106.05;;;47.17;;
52274;SDS011;38228;50.940;4.024;2022-12-01T03:06:06;102.22;;;43.53;;
52274;SDS011;38228;50.940;4.024;2022-12-01T03:21:35;101.75;;;42.30;;
52274;SDS011;38228;50.940;4.024;2022-12-01T03:24:13;107.05;;;43.58;;
52274;SDS011;38228;50.940;4.024;2022-12-01T03:26:55;96.88;;;42.53;;
52274;SDS011;38228;50.940;4.024;2022-12-01T03:29:33;98.88;;;41.90;;
52274;SDS011;38228;50.940;4.024;2022-12-01T03:32:28;100.15;;;42.58;;
52274;SDS011;38228;50.940;4.024;2022-12-01T03:34:56;98.35;;;39.53;;
52274;SDS011;38228;50.940;4.024;2022-12-01T03:40:20;92.13;;;38.90;;
52274;SDS011;38228;50.940;4.024;2022-12-01T03:42:53;87.28;;;40.55;;
52274;SDS011;38228;50.940;4.024;2022-12-01T03:45:45;85.90;;;38.90;;
52274;SDS011;38228;50.940;4.024;2022-12-01T03:48:28;81.18;;;37.80;;
52274;SDS011;38228;50.940;4.024;2022-12-01T03:53:51;80.82;;;37.42;;
52274;SDS011;38228;50.940;4.024;2022-12-01T03:56:28;83.78;;;38.50;;
52274;SDS011;38228;50.940;4.024;2022-12-01T03:59:02;78.15;;;37.42;;
52274;SDS011;38228;50.940;4.024;2022-12-01T04:01:43;81.88;;;36.47;;
52274;SDS011;38228;50.940;4.024;2022-12-01T04:04:20;77.13;;;35.95;;
52274;SDS011;38228;50.940;4.024;2022-12-01T04:06:52;76.88;;;36.10;;
52274;SDS011;38228;50.940;4.024;2022-12-01T04:09:41;79.80;;;36.78;;
52274;SDS011;38228;50.940;4.024;2022-12-01T04:12:17;72.10;;;35.47;;
52274;SDS011;38228;50.940;4.024;2022-12-01T04:15:17;75.03;;;35.83;;
52274;SDS011;38228;50.940;4.024;2022-12-01T04:17:49;78.18;;;36.35;;
52274;SDS011;38228;50.940;4.024;2022-12-01T04:20:30;75.32;;;35.53;;
52274;SDS011;38228;50.940;4.024;2022-12-01T04:23:07;78.50;;;35.97;;
52274;SDS011;38228;50.940;4.024;2022-12-01T04:25:58;79.57;;;37.03;;
52274;SDS011;38228;50.940;4.024;2022-12-01T04:28:31;71.95;;;35.92;;
52274;SDS011;38228;50.940;4.024;2022-12-01T04:31:10;72.03;;;33.58;;
52274;SDS011;38228;50.940;4.024;2022-12-01T04:33:36;70.53;;;33.17;;
52274;SDS011;38228;50.940;4.024;2022-12-01T04:36:03;61.33;;;28.95;;
52274;SDS011;38228;50.940;4.024;2022-12-01T04:38:37;61.72;;;29.63;;
52274;SDS011;38228;50.940;4.024;2022-12-01T04:41:11;55.78;;;27.90;;
52274;SDS011;38228;50.940;4.024;2022-12-01T04:43:43;59.08;;;28.05;;
52274;SDS011;38228;50.940;4.024;2022-12-01T04:46:17;60.72;;;29.52;;
52274;SDS011;38228;50.940;4.024;2022-12-01T04:48:49;53.33;;;27.35;;
52274;SDS011;38228;50.940;4.024;2022-12-01T04:51:29;62.22;;;28.55;;
52274;SDS011;38228;50.940;4.024;2022-12-01T04:54:13;60.13;;;27.05;;
52274;SDS011;38228;50.940;4.024;2022-12-01T04:56:51;60.22;;;29.48;;
52274;SDS011;38228;50.940;4.024;2022-12-01T04:59:23;62.53;;;29.23;;
52274;SDS011;38228;50.940;4.024;2022-12-01T05:01:54;58.30;;;28.65;;
52274;SDS011;38228;50.940;4.024;2022-12-01T05:04:26;58.67;;;29.25;;
52274;SDS011;38228;50.940;4.024;2022-12-01T05:07:05;58.45;;;28.08;;
52274;SDS011;38228;50.940;4.024;2022-12-01T05:09:33;56.92;;;29.00;;
52274;SDS011;38228;50.940;4.024;2022-12-01T05:12:05;58.90;;;29.83;;
52274;SDS011;38228;50.940;4.024;2022-12-01T05:14:40;63.38;;;30.50;;
52274;SDS011;38228;50.940;4.024;2022-12-01T05:17:13;62.08;;;30.48;;
52274;SDS011;38228;50.940;4.024;2022-12-01T05:19:41;63.30;;;29.92;;
52274;SDS011;38228;50.940;4.024;2022-12-01T05:22:25;59.80;;;27.52;;
52274;SDS011;38228;50.940;4.024;2022-12-01T05:25:03;59.88;;;29.55;;
52274;SDS011;38228;50.940;4.024;2022-12-01T05:27:51;62.70;;;28.48;;
52274;SDS011;38228;50.940;4.024;2022-12-01T05:30:27;58.40;;;27.23;;
52274;SDS011;38228;50.940;4.024;2022-12-01T05:33:00;56.85;;;27.13;;
52274;SDS011;38228;50.940;4.024;2022-12-01T05:35:33;58.92;;;28.95;;
52274;SDS011;38228;50.940;4.024;2022-12-01T05:38:11;56.95;;;27.48;;
52274;SDS011;38228;50.940;4.024;2022-12-01T05:40:50;59.42;;;28.30;;
52274;SDS011;38228;50.940;4.024;2022-12-01T05:43:24;60.08;;;28.60;;
52274;SDS011;38228;50.940;4.024;2022-12-01T05:46:02;60.83;;;29.90;;
52274;SDS011;38228;50.940;4.024;2022-12-01T05:48:39;60.15;;;29.67;;
52274;SDS011;38228;50.940;4.024;2022-12-01T05:51:13;61.33;;;30.10;;
52274;SDS011;38228;50.940;4.024;2022-12-01T05:53:49;60.17;;;28.95;;
52274;SDS011;38228;50.940;4.024;2022-12-01T05:56:19;60.60;;;29.85;;
52274;SDS011;38228;50.940;4.024;2022-12-01T05:58:50;60.83;;;30.75;;
52274;SDS011;38228;50.940;4.024;2022-12-01T06:01:16;63.55;;;30.65;;
52274;SDS011;38228;50.940;4.024;2022-12-01T06:03:46;69.88;;;30.88;;
52274;SDS011;38228;50.940;4.024;2022-12-01T06:06:18;65.00;;;30.02;;
52274;SDS011;38228;50.940;4.024;2022-12-01T06:08:46;63.40;;;29.98;;
52274;SDS011;38228;50.940;4.024;2022-12-01T06:11:18;61.85;;;30.15;;
52274;SDS011;38228;50.940;4.024;2022-12-01T06:13:54;63.28;;;30.70;;
52274;SDS011;38228;50.940;4.024;2022-12-01T06:16:35;65.53;;;30.17;;
52274;SDS011;38228;50.940;4.024;2022-12-01T06:19:11;64.03;;;30.92;;
52274;SDS011;38228;50.940;4.024;2022-12-01T06:21:45;65.05;;;30.80;;
52274;SDS011;38228;50.940;4.024;2022-12-01T06:24:17;57.95;;;27.85;;
52274;SDS011;38228;50.940;4.024;2022-12-01T06:26:57;64.65;;;29.92;;
52274;SDS011;38228;50.940;4.024;2022-12-01T06:29:40;63.22;;;30.77;;
52274;SDS011;38228;50.940;4.024;2022-12-01T06:32:13;67.85;;;30.88;;
52274;SDS011;38228;50.940;4.024;2022-12-01T06:34:44;64.70;;;29.92;;
52274;SDS011;38228;50.940;4.024;2022-12-01T06:37:21;67.90;;;30.85;;
52274;SDS011;38228;50.940;4.024;2022-12-01T06:39:52;64.85;;;29.95;;
52274;SDS011;38228;50.940;4.024;2022-12-01T06:42:19;72.75;;;33.50;;
52274;SDS011;38228;50.940;4.024;2022-12-01T06:44:50;69.40;;;30.65;;
52274;SDS011;38228;50.940;4.024;2022-12-01T06:47:21;65.88;;;30.55;;
52274;SDS011;38228;50.940;4.024;2022-12-01T06:49:59;64.13;;;29.17;;
52274;SDS011;38228;50.940;4.024;2022-12-01T06:52:33;72.40;;;31.70;;
52274;SDS011;38228;50.940;4.024;2022-12-01T06:55:02;70.80;;;31.67;;
52274;SDS011;38228;50.940;4.024;2022-12-01T06:57:33;66.20;;;31.17;;
52274;SDS011;38228;50.940;4.024;2022-12-01T07:00:04;66.65;;;32.05;;
52274;SDS011;38228;50.940;4.024;2022-12-01T07:02:38;72.60;;;32.90;;
52274;SDS011;38228;50.940;4.024;2022-12-01T07:05:14;79.95;;;33.50;;
52274;SDS011;38228;50.940;4.024;2022-12-01T07:07:51;78.10;;;35.00;;
52274;SDS011;38228;50.940;4.024;2022-12-01T07:10:20;69.70;;;33.05;;
52274;SDS011;38228;50.940;4.024;2022-12-01T07:13:12;73.57;;;34.03;;
52274;SDS011;38228;50.940;4.024;2022-12-01T07:15:43;71.68;;;32.95;;
52274;SDS011;38228;50.940;4.024;2022-12-01T07:18:09;82.88;;;39.03;;
52274;SDS011;38228;50.940;4.024;2022-12-01T07:20:35;73.65;;;34.13;;
52274;SDS011;38228;50.940;4.024;2022-12-01T07:23:03;71.78;;;33.92;;
52274;SDS011;38228;50.940;4.024;2022-12-01T07:26:00;72.22;;;32.30;;
52274;SDS011;38228;50.940;4.024;2022-12-01T07:28:36;71.18;;;31.48;;
52274;SDS011;38228;50.940;4.024;2022-12-01T07:34:09;69.75;;;31.23;;
52274;SDS011;38228;50.940;4.024;2022-12-01T07:36:42;67.45;;;32.08;;
52274;SDS011;38228;50.940;4.024;2022-12-01T07:39:08;67.45;;;31.05;;
52274;SDS011;38228;50.940;4.024;2022-12-01T07:41:34;64.40;;;31.63;;
52274;SDS011;38228;50.940;4.024;2022-12-01T07:44:00;63.78;;;31.98;;
52274;SDS011;38228;50.940;4.024;2022-12-01T07:46:26;65.68;;;31.65;;
52274;SDS011;38228;50.940;4.024;2022-12-01T07:48:53;69.25;;;32.75;;
52274;SDS011;38228;50.940;4.024;2022-12-01T07:51:19;70.95;;;33.60;;
52274;SDS011;38228;50.940;4.024;2022-12-01T07:53:47;70.85;;;33.03;;
52274;SDS011;38228;50.940;4.024;2022-12-01T07:56:14;75.35;;;34.53;;
52274;SDS011;38228;50.940;4.024;2022-12-01T07:58:40;72.90;;;34.92;;
52274;SDS011;38228;50.940;4.024;2022-12-01T08:01:15;75.05;;;35.17;;
52274;SDS011;38228;50.940;4.024;2022-12-01T08:03:46;76.95;;;35.17;;
52274;SDS011;38228;50.940;4.024;2022-12-01T08:06:14;73.88;;;34.17;;
52274;SDS011;38228;50.940;4.024;2022-12-01T08:08:45;76.50;;;35.60;;
52274;SDS011;38228;50.940;4.024;2022-12-01T08:11:25;82.13;;;36.95;;
52274;SDS011;38228;50.940;4.024;2022-12-01T08:13:53;74.28;;;35.67;;
52274;SDS011;38228;50.940;4.024;2022-12-01T08:16:22;82.65;;;36.97;;
52274;SDS011;38228;50.940;4.024;2022-12-01T08:18:54;74.43;;;36.10;;
52274;SDS011;38228;50.940;4.024;2022-12-01T08:21:25;84.93;;;37.75;;
52274;SDS011;38228;50.940;4.024;2022-12-01T08:24:05;83.32;;;37.13;;
52274;SDS011;38228;50.940;4.024;2022-12-01T08:26:32;79.10;;;36.72;;
52274;SDS011;38228;50.940;4.024;2022-12-01T08:28:57;76.80;;;35.15;;
52274;SDS011;38228;50.940;4.024;2022-12-01T08:31:27;78.65;;;35.50;;
52274;SDS011;38228;50.940;4.024;2022-12-01T08:33:55;76.93;;;34.88;;
52274;SDS011;38228;50.940;4.024;2022-12-01T08:36:21;79.50;;;34.97;;
52274;SDS011;38228;50.940;4.024;2022-12-01T08:38:49;81.30;;;36.72;;
52274;SDS011;38228;50.940;4.024;2022-12-01T08:41:20;82.15;;;36.95;;
52274;SDS011;38228;50.940;4.024;2022-12-01T08:43:48;85.63;;;37.60;;
52274;SDS011;38228;50.940;4.024;2022-12-01T08:46:16;85.20;;;36.75;;
52274;SDS011;38228;50.940;4.024;2022-12-01T08:48:44;87.57;;;38.55;;
52274;SDS011;38228;50.940;4.024;2022-12-01T08:51:19;85.97;;;37.83;;
52274;SDS011;38228;50.940;4.024;2022-12-01T08:53:47;94.45;;;40.60;;
52274;SDS011;38228;50.940;4.024;2022-12-01T08:56:18;89.28;;;39.17;;
52274;SDS011;38228;50.940;4.024;2022-12-01T08:58:55;88.88;;;40.28;;
52274;SDS011;38228;50.940;4.024;2022-12-01T09:01:25;83.68;;;38.80;;
52274;SDS011;38228;50.940;4.024;2022-12-01T09:03:57;90.15;;;38.42;;
52274;SDS011;38228;50.940;4.024;2022-12-01T09:06:36;90.07;;;38.60;;
52274;SDS011;38228;50.940;4.024;2022-12-01T09:09:11;87.40;;;39.53;;
52274;SDS011;38228;50.940;4.024;2022-12-01T09:11:40;85.18;;;36.97;;
52274;SDS011;38228;50.940;4.024;2022-12-01T09:14:08;84.40;;;38.97;;
52274;SDS011;38228;50.940;4.024;2022-12-01T09:16:34;89.22;;;39.38;;
52274;SDS011;38228;50.940;4.024;2022-12-01T09:19:00;78.00;;;37.80;;
52274;SDS011;38228;50.940;4.024;2022-12-01T09:21:27;82.15;;;38.83;;
52274;SDS011;38228;50.940;4.024;2022-12-01T09:23:57;85.18;;;39.08;;
52274;SDS011;38228;50.940;4.024;2022-12-01T09:26:29;91.88;;;39.22;;
52274;SDS011;38228;50.940;4.024;2022-12-01T09:29:06;85.28;;;38.80;;
52274;SDS011;38228;50.940;4.024;2022-12-01T09:31:39;86.57;;;39.30;;
52274;SDS011;38228;50.940;4.024;2022-12-01T09:34:11;85.63;;;37.90;;
52274;SDS011;38228;50.940;4.024;2022-12-01T09:36:44;90.78;;;39.80;;
52274;SDS011;38228;50.940;4.024;2022-12-01T09:39:17;86.80;;;39.15;;
52274;SDS011;38228;50.940;4.024;2022-12-01T09:44:41;84.70;;;38.63;;
52274;SDS011;38228;50.940;4.024;2022-12-01T09:47:18;81.82;;;37.13;;
52274;SDS011;38228;50.940;4.024;2022-12-01T09:52:50;84.10;;;36.90;;
52274;SDS011;38228;50.940;4.024;2022-12-01T09:55:22;75.15;;;36.10;;
52274;SDS011;38228;50.940;4.024;2022-12-01T09:57:53;75.25;;;34.63;;
52274;SDS011;38228;50.940;4.024;2022-12-01T10:00:23;86.68;;;36.47;;
52274;SDS011;38228;50.940;4.024;2022-12-01T10:02:54;78.57;;;36.25;;
52274;SDS011;38228;50.940;4.024;2022-12-01T10:05:47;78.72;;;36.92;;
52274;SDS011;38228;50.940;4.024;2022-12-01T10:08:20;73.70;;;35.33;;
52274;SDS011;38228;50.940;4.024;2022-12-01T10:10:55;75.13;;;35.05;;
52274;SDS011;38228;50.940;4.024;2022-12-01T10:13:36;74.63;;;35.13;;
52274;SDS011;38228;50.940;4.024;2022-12-01T10:19:06;68.78;;;33.92;;
52274;SDS011;38228;50.940;4.024;2022-12-01T10:21:45;70.20;;;34.55;;
52274;SDS011;38228;50.940;4.024;2022-12-01T10:30:20;75.38;;;35.33;;
52274;SDS011;38228;50.940;4.024;2022-12-01T10:35:35;70.35;;;33.10;;
52274;SDS011;38228;50.940;4.024;2022-12-01T10:38:04;70.97;;;33.72;;
52274;SDS011;38228;50.940;4.024;2022-12-01T10:40:38;69.50;;;32.53;;
52274;SDS011;38228;50.940;4.024;2022-12-01T10:43:12;70.95;;;32.95;;
52274;SDS011;38228;50.940;4.024;2022-12-01T10:45:46;71.65;;;33.40;;
52274;SDS011;38228;50.940;4.024;2022-12-01T10:48:20;71.88;;;32.75;;
52274;SDS011;38228;50.940;4.024;2022-12-01T10:50:54;77.00;;;35.78;;
52274;SDS011;38228;50.940;4.024;2022-12-01T10:53:33;69.05;;;34.80;;
52274;SDS011;38228;50.940;4.024;2022-12-01T10:56:18;71.88;;;33.42;;
52274;SDS011;38228;50.940;4.024;2022-12-01T10:58:50;64.78;;;33.33;;
52274;SDS011;38228;50.940;4.024;2022-12-01T11:01:26;70.55;;;34.17;;
52274;SDS011;38228;50.940;4.024;2022-12-01T11:04:05;76.22;;;34.65;;
52274;SDS011;38228;50.940;4.024;2022-12-01T11:06:33;71.78;;;35.13;;
52274;SDS011;38228;50.940;4.024;2022-12-01T11:09:03;67.00;;;32.83;;
52274;SDS011;38228;50.940;4.024;2022-12-01T11:11:35;68.13;;;32.28;;
52274;SDS011;38228;50.940;4.024;2022-12-01T11:14:17;63.80;;;31.17;;
52274;SDS011;38228;50.940;4.024;2022-12-01T11:17:13;69.00;;;32.22;;
52274;SDS011;38228;50.940;4.024;2022-12-01T11:19:54;67.93;;;32.13;;
52274;SDS011;38228;50.940;4.024;2022-12-01T11:25:18;60.58;;;29.42;;
52274;SDS011;38228;50.940;4.024;2022-12-01T11:28:05;60.15;;;29.80;;
52274;SDS011;38228;50.940;4.024;2022-12-01T11:30:53;63.97;;;31.35;;
52274;SDS011;38228;50.940;4.024;2022-12-01T11:33:26;65.13;;;30.15;;
52274;SDS011;38228;50.940;4.024;2022-12-01T11:35:55;65.18;;;31.45;;
52274;SDS011;38228;50.940;4.024;2022-12-01T11:38:23;61.63;;;30.92;;
52274;SDS011;38228;50.940;4.024;2022-12-01T11:40:58;62.83;;;29.88;;
52274;SDS011;38228;50.940;4.024;2022-12-01T11:43:31;68.90;;;31.45;;
52274;SDS011;38228;50.940;4.024;2022-12-01T11:46:04;57.15;;;29.73;;
52274;SDS011;38228;50.940;4.024;2022-12-01T11:48:41;59.17;;;30.23;;
52274;SDS011;38228;50.940;4.024;2022-12-01T11:51:30;63.90;;;31.25;;
52274;SDS011;38228;50.940;4.024;2022-12-01T11:57:03;62.22;;;30.27;;
52274;SDS011;38228;50.940;4.024;2022-12-01T11:59:43;63.78;;;31.85;;
52274;SDS011;38228;50.940;4.024;2022-12-01T12:02:58;65.60;;;30.73;;
52274;SDS011;38228;50.940;4.024;2022-12-01T12:05:31;61.42;;;30.35;;
52274;SDS011;38228;50.940;4.024;2022-12-01T12:08:51;56.90;;;28.35;;
52274;SDS011;38228;50.940;4.024;2022-12-01T12:12:25;60.17;;;29.38;;
52274;SDS011;38228;50.940;4.024;2022-12-01T12:35:43;79.45;;;37.80;;
52274;SDS011;38228;50.940;4.024;2022-12-01T12:41:53;71.72;;;36.53;;
